Time;durP1;ratioP1;P1;durP2;ratioP2;P2;SDS_P1;SDS_P2;PMS_P1;PMS_P2;Temp;Humidity;BMP_temperature;BMP_pressure;BME280_temperature;BME280_humidity;BME280_pressure;Samples;Min_cycle;Max_cycle;Signal;HPM_P1;HPM_P2
2021/04/24 00:00:36;;;;;;;21.60;10.18;;;;;;;4.66;65.89;100669.13;4914963;29;20063;-72
2021/04/24 00:03:02;;;;;;;20.30;11.63;;;;;;;4.65;65.72;100667.38;4914870;29;20056;-72
2021/04/24 00:05:36;;;;;;;20.10;10.32;;;;;;;4.62;66.17;100663.03;4914374;29;20478;-73
2021/04/24 00:08:04;;;;;;;19.42;10.32;;;;;;;4.60;66.28;100661.34;4919092;29;20419;-74
2021/04/24 00:10:32;;;;;;;24.45;10.70;;;;;;;4.54;66.21;100662.28;4936815;28;20039;-73
2021/04/24 00:12:59;;;;;;;17.13;8.48;;;;;;;4.48;66.23;100668.44;4934225;29;20539;-74
2021/04/24 00:15:24;;;;;;;14.95;9.63;;;;;;;4.47;66.53;100671.91;4947423;29;20055;-73
2021/04/24 00:17:50;;;;;;;19.27;9.68;;;;;;;4.55;65.87;100666.59;4953648;29;20098;-72
2021/04/24 00:20:19;;;;;;;14.73;10.73;;;;;;;4.57;66.04;100664.00;4953542;29;20380;-73
2021/04/24 00:22:45;;;;;;;17.73;10.45;;;;;;;4.59;66.01;100665.69;4953161;29;20122;-72
2021/04/24 00:25:11;;;;;;;29.25;15.95;;;;;;;4.54;66.49;100666.63;4938711;29;20139;-72
2021/04/24 00:27:37;;;;;;;20.88;10.10;;;;;;;4.42;66.47;100659.78;4934929;29;20095;-72
2021/04/24 00:30:04;;;;;;;15.88;10.63;;;;;;;4.35;67.06;100671.16;4942824;29;20035;-72
2021/04/24 00:32:30;;;;;;;18.15;9.20;;;;;;;4.33;66.84;100671.16;4936870;29;20557;-72
2021/04/24 00:34:55;;;;;;;21.20;11.65;;;;;;;4.29;67.03;100666.88;4954349;29;20042;-72
2021/04/24 00:37:20;;;;;;;13.25;9.55;;;;;;;4.20;67.25;100664.34;4953499;29;20059;-72
2021/04/24 00:39:45;;;;;;;19.80;12.90;;;;;;;4.16;67.35;100666.13;4953418;29;20126;-73
2021/04/24 00:42:12;;;;;;;14.32;8.65;;;;;;;4.09;67.54;100672.28;4945478;29;20072;-71
2021/04/24 00:44:45;;;;;;;20.13;9.18;;;;;;;4.05;67.61;100673.16;4934268;29;20149;-74
2021/04/24 00:47:10;;;;;;;17.88;9.13;;;;;;;4.05;67.32;100668.81;4933745;29;20621;-72
2021/04/24 00:49:36;;;;;;;22.67;9.98;;;;;;;4.02;67.64;100663.63;4934653;29;20058;-72
2021/04/24 00:52:01;;;;;;;18.20;10.07;;;;;;;3.93;67.91;100655.88;4933136;29;20112;-72
2021/04/24 00:54:27;;;;;;;18.55;10.43;;;;;;;3.87;68.07;100661.16;4919452;29;20059;-71
2021/04/24 00:56:52;;;;;;;26.63;14.27;;;;;;;3.83;68.29;100654.22;4917301;29;20044;-73
2021/04/24 00:59:17;;;;;;;18.27;11.18;;;;;;;3.86;68.31;100655.06;4918053;29;20068;-72
2021/04/24 01:01:43;;;;;;;24.80;13.82;;;;;;;3.84;68.24;100655.97;4896437;29;20035;-71
2021/04/24 01:04:08;;;;;;;15.63;9.88;;;;;;;3.83;68.72;100656.81;4921390;29;20040;-71
2021/04/24 01:06:34;;;;;;;16.85;10.55;;;;;;;3.81;68.51;100661.19;4924885;29;20691;-72
2021/04/24 01:08:59;;;;;;;22.45;11.38;;;;;;;3.73;68.52;100660.38;4918512;29;20028;-72
2021/04/24 01:11:24;;;;;;;17.20;11.95;;;;;;;3.69;68.60;100654.31;4881940;29;20127;-73
2021/04/24 01:13:50;;;;;;;26.38;11.77;;;;;;;3.64;68.71;100649.16;4925458;29;20063;-72
2021/04/24 01:16:15;;;;;;;23.83;11.95;;;;;;;3.65;68.63;100658.69;4933569;29;20034;-71
2021/04/24 01:18:40;;;;;;;22.48;10.70;;;;;;;3.64;68.95;100653.47;4938032;29;20042;-71
2021/04/24 01:21:08;;;;;;;18.98;11.52;;;;;;;3.62;68.58;100656.13;4949558;28;20035;-72
2021/04/24 01:23:34;;;;;;;19.80;11.82;;;;;;;3.62;68.64;100658.72;4951886;28;20041;-71
2021/04/24 01:26:01;;;;;;;21.92;9.00;;;;;;;3.62;68.54;100661.31;4951475;28;20031;-72
2021/04/24 01:28:28;;;;;;;19.65;9.02;;;;;;;3.62;69.05;100658.72;4951880;28;20035;-71
2021/04/24 01:30:53;;;;;;;16.73;9.45;;;;;;;3.61;68.68;100659.56;4952449;29;20035;-72
2021/04/24 01:33:19;;;;;;;14.25;8.93;;;;;;;3.59;69.19;100655.25;4952459;28;20040;-74
2021/04/24 01:35:44;;;;;;;19.42;9.18;;;;;;;3.58;69.35;100658.75;4952135;29;20113;-71
2021/04/24 01:38:10;;;;;;;17.33;9.52;;;;;;;3.54;68.60;100659.63;4952339;29;20047;-71
2021/04/24 01:40:36;;;;;;;21.08;10.20;;;;;;;3.47;68.93;100653.63;4951960;29;20028;-71
2021/04/24 01:43:02;;;;;;;15.25;9.18;;;;;;;3.40;69.51;100652.78;4953748;28;20138;-72
2021/04/24 01:45:28;;;;;;;14.95;9.73;;;;;;;3.39;69.54;100655.38;4953792;28;20054;-71
2021/04/24 01:47:54;;;;;;;12.63;7.63;;;;;;;3.36;69.80;100647.59;4962429;28;20039;-71
2021/04/24 01:50:28;;;;;;;15.55;9.35;;;;;;;3.37;70.10;100650.19;4951973;28;20511;-71
2021/04/24 01:52:54;;;;;;;25.45;10.60;;;;;;;3.33;70.11;100642.41;4966669;28;20034;-72
2021/04/24 01:55:22;;;;;;;14.32;8.85;;;;;;;3.28;69.82;100650.25;4971334;28;20031;-71
2021/04/24 01:57:49;;;;;;;15.18;9.88;;;;;;;3.22;70.09;100650.25;4971290;28;20041;-72
2021/04/24 02:00:25;;;;;;;19.00;11.02;;;;;;;3.15;70.28;100654.66;4971273;28;20104;-72
2021/04/24 02:02:53;;;;;;;17.05;8.00;;;;;;;3.10;70.48;100648.59;4970822;28;20482;-73
2021/04/24 02:05:20;;;;;;;17.88;10.25;;;;;;;3.11;70.57;100650.31;4971556;28;20043;-74
2021/04/24 02:07:59;;;;;;;21.10;10.25;;;;;;;3.08;70.35;100652.94;4970247;28;20435;-74
2021/04/24 02:10:27;;;;;;;17.20;10.18;;;;;;;3.02;70.33;100650.34;4971222;28;20118;-75
2021/04/24 02:12:53;;;;;;;18.05;10.38;;;;;;;3.01;70.69;100653.84;4955306;28;20048;-74
2021/04/24 02:15:19;;;;;;;18.73;10.20;;;;;;;2.97;70.66;100654.72;4915780;29;20090;-74
2021/04/24 02:17:44;;;;;;;19.48;9.52;;;;;;;2.96;70.38;100647.78;4915371;29;20376;-74
2021/04/24 02:20:11;;;;;;;13.77;9.30;;;;;;;2.97;70.34;100649.50;4914644;29;20040;-73
2021/04/24 02:22:36;;;;;;;12.85;8.77;;;;;;;2.95;70.41;100643.44;4932266;29;20060;-73
2021/04/24 02:25:04;;;;;;;20.05;10.48;;;;;;;2.90;70.31;100648.66;4931772;29;20043;-73
2021/04/24 02:27:30;;;;;;;18.08;10.43;;;;;;;2.86;70.76;100652.16;4934751;29;20063;-72
2021/04/24 02:29:56;;;;;;;15.65;9.45;;;;;;;2.90;70.62;100653.88;4935727;29;20079;-72
2021/04/24 02:32:28;;;;;;;16.25;8.90;;;;;;;2.91;70.78;100662.56;4918975;29;20047;-73
2021/04/24 02:34:54;;;;;;;18.38;10.10;;;;;;;2.90;70.53;100666.88;4935778;29;20043;-74
2021/04/24 02:37:19;;;;;;;19.33;10.27;;;;;;;2.88;70.48;100667.78;4936112;29;20583;-71
2021/04/24 02:39:48;;;;;;;17.88;10.70;;;;;;;2.88;70.54;100662.56;4935911;29;20075;-73
2021/04/24 02:42:20;;;;;;;20.42;12.98;;;;;;;2.82;70.68;100657.38;4935742;29;20040;-72
2021/04/24 02:44:46;;;;;;;19.38;12.35;;;;;;;2.80;70.59;100660.84;4935739;29;20040;-73
2021/04/24 02:47:12;;;;;;;25.92;10.90;;;;;;;2.81;70.91;100661.75;4931855;29;20100;-73
2021/04/24 02:49:38;;;;;;;26.92;12.10;;;;;;;2.76;70.84;100661.75;4938391;29;20047;-72
2021/04/24 02:52:05;;;;;;;19.35;9.48;;;;;;;2.74;70.65;100666.09;4944589;29;20070;-72
2021/04/24 02:54:31;;;;;;;29.13;12.02;;;;;;;2.71;70.80;100657.44;4950137;28;20039;-73
2021/04/24 02:56:56;;;;;;;30.58;9.82;;;;;;;2.70;70.93;100655.69;4940651;29;20040;-72
2021/04/24 02:59:22;;;;;;;16.55;11.40;;;;;;;2.67;71.37;100655.69;4936079;29;20055;-74
2021/04/24 03:01:48;;;;;;;20.45;10.48;;;;;;;2.62;71.62;100660.91;4937635;29;20035;-72
2021/04/24 03:04:14;;;;;;;23.13;12.77;;;;;;;2.58;71.35;100656.59;4954320;29;20039;-73
2021/04/24 03:06:40;;;;;;;18.90;11.07;;;;;;;2.54;71.17;100660.09;4954387;29;20455;-73
2021/04/24 03:09:05;;;;;;;14.88;9.95;;;;;;;2.56;71.60;100654.00;4954393;29;20039;-73
2021/04/24 03:11:31;;;;;;;24.08;10.70;;;;;;;2.55;71.25;100654.84;4954310;29;20042;-73
2021/04/24 03:13:56;;;;;;;19.65;12.38;;;;;;;2.52;71.14;100657.47;4953764;28;20043;-73
2021/04/24 03:16:22;;;;;;;23.88;11.85;;;;;;;2.52;71.51;100656.59;4954112;29;20031;-73
2021/04/24 03:18:47;;;;;;;21.40;11.77;;;;;;;2.48;71.37;100660.06;4954696;29;20372;-73
2021/04/24 03:21:13;;;;;;;24.08;10.77;;;;;;;2.44;71.90;100656.63;4937009;29;20371;-73
2021/04/24 03:23:38;;;;;;;22.05;11.38;;;;;;;2.40;71.63;100660.09;4937015;29;20039;-72
2021/04/24 03:26:04;;;;;;;20.23;11.35;;;;;;;2.39;71.53;100647.97;4936452;29;20046;-73
2021/04/24 03:28:29;;;;;;;26.92;12.88;;;;;;;2.33;71.37;100646.22;4950147;29;20044;-73
2021/04/24 03:30:54;;;;;;;17.55;10.50;;;;;;;2.25;72.08;100655.78;4917395;29;20036;-73
2021/04/24 03:33:20;;;;;;;19.15;11.82;;;;;;;2.22;71.81;100652.34;4899237;29;20043;-73
2021/04/24 03:35:45;;;;;;;23.98;11.75;;;;;;;2.26;72.34;100656.66;4915358;29;20401;-73
2021/04/24 03:38:10;;;;;;;27.08;13.00;;;;;;;2.23;72.20;100654.91;4914745;29;20408;-73
2021/04/24 03:40:36;;;;;;;18.40;10.98;;;;;;;2.22;72.50;100648.00;4915570;29;20526;-72
2021/04/24 03:43:02;;;;;;;23.85;11.45;;;;;;;2.22;72.57;100649.72;4915133;29;20054;-73
2021/04/24 03:45:27;;;;;;;19.63;12.23;;;;;;;2.23;72.06;100652.31;4915331;29;20054;-73
2021/04/24 03:47:54;;;;;;;20.55;11.68;;;;;;;2.22;71.98;100653.19;4915453;29;20684;-73
2021/04/24 03:50:21;;;;;;;23.55;10.73;;;;;;;2.21;72.27;100648.84;4916360;29;20510;-73
2021/04/24 03:52:47;;;;;;;30.30;12.68;;;;;;;2.18;72.47;100645.41;4916711;29;20102;-73
2021/04/24 03:55:14;;;;;;;24.33;12.05;;;;;;;2.14;72.36;100648.00;4926186;28;20048;-73
2021/04/24 03:57:43;;;;;;;20.23;10.88;;;;;;;2.12;72.42;100649.72;4941968;29;20478;-74
2021/04/24 04:00:09;;;;;;;25.02;12.55;;;;;;;2.12;72.54;100652.34;4934154;29;20067;-74
2021/04/24 04:02:44;;;;;;;29.35;13.10;;;;;;;2.12;72.41;100649.72;4933948;29;20039;-73
2021/04/24 04:05:11;;;;;;;19.90;10.82;;;;;;;2.17;72.55;100652.34;4933892;29;20048;-73
2021/04/24 04:07:36;;;;;;;21.25;12.90;;;;;;;2.15;72.50;100651.47;4934194;29;20031;-73
2021/04/24 04:10:02;;;;;;;24.35;11.65;;;;;;;2.14;71.96;100648.00;4934398;29;20032;-73
2021/04/24 04:12:27;;;;;;;19.48;11.07;;;;;;;2.11;72.46;100657.53;4933691;29;20087;-73
2021/04/24 04:14:52;;;;;;;19.52;11.57;;;;;;;2.13;72.49;100656.66;4934145;29;20511;-73
2021/04/24 04:17:18;;;;;;;20.23;10.32;;;;;;;2.12;72.30;100659.28;4933495;29;20056;-73
2021/04/24 04:19:43;;;;;;;23.52;12.73;;;;;;;2.10;72.79;100650.59;4933711;29;20036;-73
2021/04/24 04:22:08;;;;;;;15.88;11.07;;;;;;;2.11;72.53;100660.13;4943331;29;20439;-73
2021/04/24 04:24:34;;;;;;;22.45;12.85;;;;;;;2.10;72.48;100661.88;4935544;29;20067;-73
2021/04/24 04:26:59;;;;;;;17.77;13.02;;;;;;;2.08;72.84;100662.75;4937573;29;20034;-73
2021/04/24 04:29:24;;;;;;;28.27;14.15;;;;;;;2.08;73.00;100657.53;4952217;29;20028;-74
2021/04/24 04:31:50;;;;;;;20.33;13.50;;;;;;;2.09;72.77;100661.84;4936019;29;20090;-74
2021/04/24 04:34:16;;;;;;;31.40;13.77;;;;;;;2.07;73.55;100655.81;4935407;29;20027;-74
2021/04/24 04:36:41;;;;;;;23.40;13.70;;;;;;;2.05;72.84;100654.94;4952615;29;20039;-74
2021/04/24 04:39:06;;;;;;;26.25;15.23;;;;;;;2.06;72.96;100657.53;4949054;29;20058;-74
2021/04/24 04:41:32;;;;;;;26.88;14.32;;;;;;;2.07;73.40;100659.28;4915818;29;20140;-73
2021/04/24 04:43:57;;;;;;;23.40;12.38;;;;;;;2.09;72.80;100652.34;4932979;29;20088;-73
2021/04/24 04:46:22;;;;;;;16.30;10.88;;;;;;;2.12;72.92;100651.47;4916711;29;20046;-73
2021/04/24 04:48:48;;;;;;;19.05;11.07;;;;;;;2.14;73.09;100652.31;4929610;29;20055;-73
2021/04/24 04:51:14;;;;;;;28.95;12.00;;;;;;;2.19;73.00;100663.63;4933312;29;20062;-73
2021/04/24 04:53:40;;;;;;;21.83;12.35;;;;;;;2.21;72.62;100658.38;4933648;29;20407;-73
2021/04/24 04:56:05;;;;;;;23.40;13.32;;;;;;;2.23;71.98;100657.50;4940421;29;20464;-73
2021/04/24 04:58:30;;;;;;;28.13;12.73;;;;;;;2.26;72.30;100654.03;4934684;29;20483;-73
2021/04/24 05:00:56;;;;;;;31.02;14.75;;;;;;;2.29;72.07;100652.31;4933463;29;20385;-73
2021/04/24 05:03:21;;;;;;;29.17;13.82;;;;;;;2.28;71.97;100647.09;4916674;29;20090;-73
2021/04/24 05:05:48;;;;;;;27.17;14.93;;;;;;;2.32;72.03;100656.66;4916530;29;20500;-73
2021/04/24 05:08:13;;;;;;;26.45;13.57;;;;;;;2.40;72.41;100649.69;4933874;29;20043;-74
2021/04/24 05:10:39;;;;;;;28.90;14.95;;;;;;;2.50;71.80;100650.53;4933423;29;20035;-72
2021/04/24 05:13:04;;;;;;;21.75;12.48;;;;;;;2.58;71.24;100660.06;4932790;29;20071;-72
2021/04/24 05:15:29;;;;;;;21.65;12.25;;;;;;;2.70;71.31;100661.75;4932795;29;20115;-73
2021/04/24 05:17:55;;;;;;;19.90;11.82;;;;;;;2.84;70.73;100658.25;4932879;29;20102;-73
2021/04/24 05:20:20;;;;;;;24.50;11.98;;;;;;;2.92;70.54;100666.91;4916088;29;20090;-74
2021/04/24 05:22:46;;;;;;;23.02;11.85;;;;;;;3.13;69.96;100669.41;4933191;29;20035;-74
2021/04/24 05:25:14;;;;;;;24.45;13.15;;;;;;;3.36;69.25;100660.63;4933067;29;20039;-74
2021/04/24 05:27:43;;;;;;;19.88;13.50;;;;;;;3.46;68.91;100659.69;4933288;29;20040;-74
2021/04/24 05:30:09;;;;;;;23.85;13.25;;;;;;;3.53;68.89;100668.34;4933003;29;20040;-74
2021/04/24 05:32:34;;;;;;;30.88;13.85;;;;;;;3.58;68.63;100662.22;4933434;29;20090;-75
2021/04/24 05:35:00;;;;;;;23.15;12.27;;;;;;;3.68;68.77;100663.00;4909245;29;20139;-74
2021/04/24 05:37:25;;;;;;;22.05;13.30;;;;;;;3.76;68.41;100668.19;4914722;29;20063;-72
2021/04/24 05:39:52;;;;;;;32.53;15.48;;;;;;;3.86;68.28;100660.28;4897651;29;20047;-73
2021/04/24 05:42:18;;;;;;;26.80;14.10;;;;;;;3.96;68.04;100665.41;4903937;29;20693;-71
2021/04/24 05:44:43;;;;;;;22.55;13.95;;;;;;;4.05;67.69;100665.34;4941714;29;20054;-71
2021/04/24 05:47:08;;;;;;;25.98;13.48;;;;;;;4.13;68.12;100673.97;4942951;28;20047;-71
2021/04/24 05:49:34;;;;;;;22.05;12.25;;;;;;;4.26;67.57;100673.00;4951641;28;20035;-72
2021/04/24 05:52:01;;;;;;;19.00;11.13;;;;;;;4.42;67.05;100675.44;4935084;29;20141;-72
2021/04/24 05:54:27;;;;;;;19.90;13.90;;;;;;;4.52;66.74;100682.31;4953063;29;20122;-71
2021/04/24 05:56:52;;;;;;;23.08;12.85;;;;;;;4.59;66.53;100675.28;4952981;29;20039;-72
2021/04/24 05:59:18;;;;;;;21.02;11.35;;;;;;;4.79;66.21;100677.69;4952378;29;20471;-71
2021/04/24 06:01:43;;;;;;;17.02;10.63;;;;;;;4.97;65.18;100674.84;4952338;28;20027;-71
2021/04/24 06:04:09;;;;;;;21.30;11.27;;;;;;;5.14;64.82;100669.41;4953372;28;20043;-71
2021/04/24 06:06:34;;;;;;;21.65;9.75;;;;;;;5.35;63.37;100676.13;4952159;29;20546;-72
2021/04/24 06:08:59;;;;;;;20.17;9.57;;;;;;;5.72;61.48;100668.59;4950690;29;20043;-71
2021/04/24 06:11:25;;;;;;;20.83;9.60;;;;;;;6.04;59.88;100675.13;4951278;29;20536;-72
2021/04/24 06:13:50;;;;;;;19.33;9.13;;;;;;;6.23;59.12;100676.56;4942668;28;20043;-72
2021/04/24 06:16:16;;;;;;;16.02;9.13;;;;;;;6.45;57.62;100673.56;4951194;28;20036;-72
2021/04/24 06:18:41;;;;;;;20.48;8.70;;;;;;;6.73;56.57;100666.03;4951579;28;20023;-73
2021/04/24 06:21:07;;;;;;;13.75;7.95;;;;;;;6.99;55.59;100670.78;4951520;28;20118;-72
2021/04/24 06:23:32;;;;;;;19.92;8.35;;;;;;;7.03;55.30;100666.31;4951341;28;20122;-72
2021/04/24 06:25:57;;;;;;;18.15;8.43;;;;;;;7.16;54.81;100672.16;4950954;28;20123;-71
2021/04/24 06:28:23;;;;;;;12.23;6.22;;;;;;;7.18;54.62;100675.63;4951852;28;20039;-71
2021/04/24 06:30:48;;;;;;;10.95;6.57;;;;;;;7.34;54.65;100666.56;4951161;28;20043;-71
2021/04/24 06:33:14;;;;;;;14.10;7.18;;;;;;;7.45;53.55;100664.53;4951348;28;20043;-71
2021/04/24 06:35:39;;;;;;;18.45;7.13;;;;;;;7.52;53.94;100666.13;4950760;28;20058;-72
2021/04/24 06:38:04;;;;;;;15.05;7.65;;;;;;;7.61;53.04;100666.84;4951268;28;20090;-72
2021/04/24 06:40:30;;;;;;;12.05;7.03;;;;;;;7.65;53.17;100666.69;4951200;28;20083;-72
2021/04/24 06:42:55;;;;;;;16.15;8.55;;;;;;;7.94;52.31;100668.66;4950189;28;20069;-72
2021/04/24 06:45:21;;;;;;;14.07;8.05;;;;;;;8.10;51.35;100670.91;4950861;28;20047;-72
2021/04/24 06:47:48;;;;;;;19.73;6.53;;;;;;;8.24;51.37;100673.19;4951329;28;20043;-72
2021/04/24 06:50:14;;;;;;;11.05;6.20;;;;;;;8.41;50.72;100671.00;4949438;28;20035;-72
2021/04/24 06:52:40;;;;;;;22.67;7.60;;;;;;;8.55;49.88;100668.03;4943247;28;20114;-72
2021/04/24 06:55:07;;;;;;;10.63;6.80;;;;;;;8.59;50.21;100667.91;4916838;29;20123;-72
2021/04/24 06:57:33;;;;;;;15.52;8.23;;;;;;;8.70;49.45;100669.38;4934802;28;20038;-72
2021/04/24 06:59:58;;;;;;;15.38;6.82;;;;;;;8.85;49.16;100668.94;4950704;28;20035;-72
2021/04/24 07:02:23;;;;;;;13.05;7.00;;;;;;;9.01;49.04;100679.91;4951483;28;20035;-73
2021/04/24 07:04:49;;;;;;;13.35;6.72;;;;;;;9.31;48.84;100674.69;4950453;28;20087;-72
2021/04/24 07:07:14;;;;;;;11.57;6.63;;;;;;;9.43;48.33;100675.16;4950981;28;20065;-72
2021/04/24 07:09:40;;;;;;;17.02;7.60;;;;;;;9.60;47.63;100674.66;4939136;29;20043;-73
2021/04/24 07:12:06;;;;;;;16.10;6.82;;;;;;;9.97;46.76;100672.59;4923742;29;20036;-73
2021/04/24 07:14:31;;;;;;;21.35;6.78;;;;;;;10.31;46.05;100673.25;4919409;29;20373;-74
2021/04/24 07:16:56;;;;;;;20.42;6.35;;;;;;;10.48;45.59;100677.06;4920183;29;20036;-71
2021/04/24 07:19:22;;;;;;;9.60;5.57;;;;;;;10.81;44.37;100664.50;4904240;29;20635;-74
2021/04/24 07:21:47;;;;;;;9.70;6.03;;;;;;;10.92;44.21;100667.59;4901709;29;20061;-71
2021/04/24 07:24:13;;;;;;;10.75;6.65;;;;;;;10.94;44.63;100668.41;4899100;29;20036;-71
2021/04/24 07:26:38;;;;;;;16.85;6.53;;;;;;;10.73;44.29;100666.53;4898998;29;20060;-71
2021/04/24 07:29:05;;;;;;;14.68;6.85;;;;;;;10.70;44.58;100662.22;4915971;29;20092;-72
2021/04/24 07:31:31;;;;;;;11.63;6.20;;;;;;;10.94;44.63;100659.63;4915842;29;20040;-73
2021/04/24 07:33:58;;;;;;;12.73;5.10;;;;;;;11.29;43.62;100662.72;4916570;29;20038;-72
2021/04/24 07:36:24;;;;;;;15.60;7.28;;;;;;;11.32;43.72;100657.31;4901218;29;20033;-72
2021/04/24 07:38:49;;;;;;;20.73;7.53;;;;;;;11.66;43.64;100662.16;4915987;29;20043;-72
2021/04/24 07:41:15;;;;;;;12.38;7.57;;;;;;;11.98;41.97;100657.38;4915086;29;20066;-73
2021/04/24 07:43:40;;;;;;;10.63;6.53;;;;;;;12.09;41.27;100659.59;4922851;29;20048;-72
2021/04/24 07:46:05;;;;;;;17.65;6.75;;;;;;;12.10;41.75;100659.50;4931296;29;20063;-73
2021/04/24 07:48:31;;;;;;;12.68;6.90;;;;;;;12.40;40.80;100654.75;4934394;29;20028;-74
2021/04/24 07:50:57;;;;;;;11.98;6.55;;;;;;;13.02;39.98;100654.66;4918499;29;20052;-72
2021/04/24 07:53:22;;;;;;;12.27;6.45;;;;;;;13.18;40.09;100660.13;4934595;29;20059;-72
2021/04/24 07:55:47;;;;;;;19.00;6.35;;;;;;;13.72;37.97;100653.19;4928138;29;20067;-71
2021/04/24 07:58:13;;;;;;;10.45;6.32;;;;;;;14.14;37.92;100654.66;4917453;29;20055;-71
2021/04/24 08:00:39;;;;;;;11.63;6.97;;;;;;;14.23;35.99;100648.03;4915602;29;20115;-72
2021/04/24 08:03:05;;;;;;;12.55;7.22;;;;;;;14.54;36.73;100655.31;4915094;29;20036;-71
2021/04/24 08:05:30;;;;;;;9.57;6.45;;;;;;;14.89;34.78;100647.28;4914860;29;20060;-72
2021/04/24 08:07:56;;;;;;;12.75;6.50;;;;;;;15.12;33.40;100648.72;4915871;29;20488;-72
2021/04/24 08:10:22;;;;;;;12.40;5.88;;;;;;;15.14;33.35;100650.34;4922598;29;20067;-73
2021/04/24 08:12:47;;;;;;;10.95;7.00;;;;;;;15.17;34.36;100650.19;4943356;28;20381;-70
2021/04/24 08:15:14;;;;;;;18.40;6.07;;;;;;;14.91;32.96;100650.72;4943647;29;20058;-69
2021/04/24 08:17:39;;;;;;;14.85;6.40;;;;;;;15.09;33.06;100647.09;4925268;29;20448;-69
2021/04/24 08:20:09;;;;;;;12.43;6.10;;;;;;;15.23;32.11;100651.63;4951887;29;20114;-69
2021/04/24 08:22:35;;;;;;;13.00;7.22;;;;;;;15.21;32.86;100643.75;4953255;28;20038;-69
2021/04/24 08:25:01;;;;;;;13.55;6.43;;;;;;;15.14;32.70;100653.00;4951828;28;20035;-69
2021/04/24 08:27:26;;;;;;;14.50;6.97;;;;;;;15.18;33.34;100643.91;4953226;29;20035;-69
2021/04/24 08:29:52;;;;;;;12.43;6.50;;;;;;;15.38;32.36;100650.81;4952449;29;20035;-70
2021/04/24 08:32:17;;;;;;;25.73;7.72;;;;;;;15.73;37.69;100652.47;4952729;28;20099;-63
2021/04/24 08:34:42;;;;;;;12.23;6.70;;;;;;;16.46;33.53;100648.13;4952238;29;20041;-63
2021/04/24 08:37:08;;;;;;;13.20;7.15;;;;;;;16.11;32.34;100647.56;4950481;28;20122;-62
2021/04/24 08:39:34;;;;;;;19.90;11.02;;;;;;;15.80;32.76;100643.16;4952573;29;20114;-63
2021/04/24 08:41:59;;;;;;;14.27;7.45;;;;;;;15.37;32.78;100645.56;4934852;29;20040;-62
2021/04/24 08:44:25;;;;;;;19.92;7.75;;;;;;;15.49;32.68;100647.53;4939823;29;20036;-62
2021/04/24 08:46:51;;;;;;;13.23;6.22;;;;;;;15.44;33.61;100646.94;4926801;29;20767;-63
2021/04/24 08:49:22;;;;;;;18.15;8.15;;;;;;;15.30;32.71;100646.84;4940887;29;20412;-61
2021/04/24 08:51:50;;;;;;;11.27;6.65;;;;;;;15.24;33.09;100640.94;4947545;29;20023;-59
2021/04/24 08:54:16;;;;;;;12.10;6.20;;;;;;;15.15;33.00;100638.78;4924427;29;20047;-73
2021/04/24 08:56:42;;;;;;;10.77;6.55;;;;;;;14.98;33.26;100636.16;4928945;29;20039;-73
2021/04/24 08:59:07;;;;;;;13.50;6.53;;;;;;;14.64;33.71;100637.97;4898594;29;20460;-73
2021/04/24 09:01:34;;;;;;;17.58;6.28;;;;;;;14.88;33.04;100632.31;4925193;29;20055;-72
2021/04/24 09:03:59;;;;;;;15.80;7.25;;;;;;;15.07;32.99;100635.69;4915713;29;20031;-72
2021/04/24 09:06:25;;;;;;;10.48;5.85;;;;;;;15.03;32.11;100644.75;4934966;29;20040;-74
2021/04/24 09:08:52;;;;;;;13.57;6.88;;;;;;;15.52;31.73;100628.75;4935169;29;20046;-72
2021/04/24 09:11:18;;;;;;;13.60;5.65;;;;;;;15.53;31.25;100635.81;4913075;29;20031;-72
2021/04/24 09:13:43;;;;;;;10.10;5.28;;;;;;;15.06;30.90;100639.25;4921885;29;20036;-73
2021/04/24 09:16:22;;;;;;;11.40;6.15;;;;;;;14.77;31.50;100643.50;4930646;29;20418;-72
2021/04/24 09:18:48;;;;;;;15.10;8.65;;;;;;;14.53;32.27;100645.59;4931735;29;20043;-73
2021/04/24 09:21:20;;;;;;;10.75;6.22;;;;;;;14.90;31.52;100649.00;4931025;29;20044;-73
2021/04/24 09:23:46;;;;;;;9.65;6.38;;;;;;;15.13;31.05;100647.75;4931605;29;20035;-73
2021/04/24 09:26:13;;;;;;;12.57;5.32;;;;;;;15.73;29.59;100642.69;4929756;29;20083;-73
2021/04/24 09:28:45;;;;;;;12.52;6.10;;;;;;;15.83;29.98;100629.72;4927758;29;20043;-73
2021/04/24 09:31:18;;;;;;;11.60;6.07;;;;;;;15.91;29.98;100631.94;4931122;28;20114;-71
2021/04/24 09:33:45;;;;;;;10.25;5.20;;;;;;;16.64;28.75;100634.69;4936080;28;20051;-73
2021/04/24 09:36:12;;;;;;;7.97;4.28;;;;;;;16.30;28.65;100637.56;4932665;28;20131;-74
2021/04/24 09:38:46;;;;;;;7.40;5.22;;;;;;;16.35;28.85;100629.31;4925322;28;20027;-73
2021/04/24 09:41:13;;;;;;;34.05;6.90;;;;;;;17.18;28.67;100624.25;4920440;29;20831;-72
2021/04/24 09:44:09;;;;;;;14.30;6.53;;;;;;;17.74;27.96;100621.53;4919133;29;20115;-73
2021/04/24 09:46:46;;;;;;;12.27;6.25;;;;;;;17.84;27.50;100622.66;4924326;28;20087;-74
2021/04/24 09:49:31;;;;;;;13.70;5.68;;;;;;;17.67;27.60;100618.44;4937494;28;20070;-73
2021/04/24 09:52:00;;;;;;;;;;;;;;;18.31;26.94;100607.09;4930302;29;20772;-73
2021/04/24 09:54:37;;;;;;;10.98;6.00;;;;;;;18.57;27.01;100622.16;4942101;28;20473;-73
2021/04/24 09:57:04;;;;;;;9.02;6.18;;;;;;;18.60;26.60;100621.09;4945436;28;20059;-74
2021/04/24 09:59:31;;;;;;;12.75;6.95;;;;;;;18.10;27.31;100612.94;4928889;29;20039;-73
2021/04/24 10:02:02;;;;;;;8.63;6.07;;;;;;;18.39;26.96;100599.44;4945811;28;20047;-74
2021/04/24 10:04:28;;;;;;;14.95;6.43;;;;;;;18.66;26.73;100596.66;4941702;28;20158;-71
2021/04/24 10:06:54;;;;;;;7.63;5.03;;;;;;;18.79;26.36;100602.84;4926195;29;20036;-73
2021/04/24 10:09:30;;;;;;;9.93;6.15;;;;;;;18.99;25.63;100593.44;4924578;29;20031;-73
2021/04/24 10:12:10;;;;;;;7.47;5.80;;;;;;;19.14;25.47;100598.63;4927461;29;20036;-72
2021/04/24 10:14:45;;;;;;;6.88;4.38;;;;;;;19.79;24.67;100587.63;4939542;29;20039;-73
2021/04/24 10:17:13;;;;;;;8.20;4.88;;;;;;;19.36;24.60;100588.09;4945903;29;20043;-72
2021/04/24 10:19:39;;;;;;;10.80;6.10;;;;;;;19.04;24.89;100593.09;4946087;29;20046;-72
2021/04/24 10:22:09;;;;;;;11.05;5.30;;;;;;;19.11;25.10;100590.84;4945399;28;20067;-73
2021/04/24 10:24:35;;;;;;;5.68;4.40;;;;;;;19.14;25.12;100587.94;4927414;29;20050;-74
2021/04/24 10:27:03;;;;;;;7.85;4.63;;;;;;;18.80;25.53;100590.34;4945185;28;20039;-74
2021/04/24 10:29:28;;;;;;;7.68;5.22;;;;;;;18.74;25.67;100594.28;4933633;28;20096;-73
2021/04/24 10:31:55;;;;;;;8.70;4.47;;;;;;;19.20;24.82;100585.69;4918056;29;20050;-73
2021/04/24 10:34:20;;;;;;;8.65;5.88;;;;;;;19.18;24.83;100584.09;4920065;29;20050;-74
2021/04/24 10:36:47;;;;;;;10.55;5.38;;;;;;;18.94;25.54;100587.56;4945500;29;20431;-72
2021/04/24 10:39:42;;;;;;;10.48;5.57;;;;;;;18.82;25.89;100578.59;4945982;29;20858;-72
2021/04/24 10:42:20;;;;;;;12.57;5.85;;;;;;;18.64;25.96;100577.19;4932890;29;20039;-72
2021/04/24 10:44:57;;;;;;;8.90;5.32;;;;;;;18.62;26.14;100574.63;4946038;29;20036;-73
2021/04/24 10:47:38;;;;;;;8.00;5.28;;;;;;;18.08;26.63;100577.47;4946013;28;20039;-73
2021/04/24 10:50:07;;;;;;;7.40;5.78;;;;;;;17.30;27.93;100575.50;4949307;29;20043;-72
2021/04/24 10:52:32;;;;;;;12.05;5.80;;;;;;;17.03;28.04;100570.13;4937125;29;20082;-72
2021/04/24 10:55:26;;;;;;;7.85;5.13;;;;;;;17.29;27.91;100564.94;4928569;29;20527;-73
2021/04/24 10:57:58;;;;;;;8.95;5.68;;;;;;;16.89;28.77;100562.16;4933770;29;20036;-72
2021/04/24 11:00:27;;;;;;;10.35;5.35;;;;;;;15.97;29.79;100560.59;4933707;29;20133;-72
2021/04/24 11:03:00;;;;;;;7.57;5.40;;;;;;;15.99;29.63;100555.22;4924405;29;20143;-74
2021/04/24 11:05:31;;;;;;;11.30;6.88;;;;;;;15.67;30.71;100556.09;4914492;29;20548;-73
2021/04/24 11:08:11;;;;;;;16.38;6.55;;;;;;;15.22;31.79;100546.34;4927981;29;20048;-73
2021/04/24 11:11:02;;;;;;;18.63;6.47;;;;;;;14.94;32.01;100550.53;4942193;29;20039;-73
2021/04/24 11:13:31;;;;;;;10.63;5.30;;;;;;;14.59;33.07;100548.00;4935879;29;20039;-72
2021/04/24 11:15:58;;;;;;;20.45;7.88;;;;;;;14.35;33.51;100555.44;4940181;29;20582;-73
2021/04/24 11:18:24;;;;;;;9.48;6.53;;;;;;;14.30;33.88;100544.22;4924622;29;20073;-72